Time;durP1;ratioP1;P1;durP2;ratioP2;P2;SDS_P1;SDS_P2;PMS_P1;PMS_P2;Temp;Humidity;BMP_temperature;BMP_pressure;BME280_temperature;BME280_humidity;BME280_pressure;Samples;Min_cycle;Max_cycle;Signal;HPM_P1;HPM_P2
2023/12/28 00:02:26;;;;;;;1.92;1.50;;;;;;;;;;5043257;28;20057;-90
2023/12/28 00:04:53;;;;;;;2.13;1.80;;;;;;;;;;5044329;28;20045;-91
2023/12/28 00:07:20;;;;;;;1.70;1.60;;;;;;;;;;5043408;28;20084;-91
2023/12/28 00:09:48;;;;;;;1.92;1.38;;;;;;;;;;5057927;28;20049;-91
2023/12/28 00:12:15;;;;;;;1.80;1.52;;;;;;;;;;5058261;28;20041;-91
2023/12/28 00:14:42;;;;;;;1.75;1.30;;;;;;;;;;5044852;28;20064;-89
2023/12/28 00:17:09;;;;;;;1.75;1.65;;;;;;;;;;5044594;28;20106;-91
2023/12/28 00:19:37;;;;;;;2.25;1.38;;;;;;;;;;5032916;28;20111;-90
2023/12/28 00:22:04;;;;;;;2.45;1.70;;;;;;;;;;5057885;28;20049;-92
2023/12/28 00:24:32;;;;;;;2.25;1.50;;;;;;;;;;5038477;28;20053;-89
2023/12/28 00:26:59;;;;;;;1.50;1.40;;;;;;;;;;5021603;28;20136;-91
2023/12/28 00:29:26;;;;;;;4.40;1.50;;;;;;;;;;5039792;28;20390;-90
2023/12/28 00:31:53;;;;;;;1.67;1.58;;;;;;;;;;5040904;28;20053;-91
2023/12/28 00:34:20;;;;;;;1.75;1.27;;;;;;;;;;5058644;28;20061;-93
2023/12/28 00:36:48;;;;;;;2.83;1.60;;;;;;;;;;5044509;28;20045;-91
2023/12/28 00:39:15;;;;;;;3.17;1.48;;;;;;;;;;5044127;28;20091;-90
2023/12/28 00:41:42;;;;;;;1.63;1.52;;;;;;;;;;5057430;28;20537;-91
2023/12/28 00:44:10;;;;;;;4.55;1.75;;;;;;;;;;5057096;28;20045;-91
2023/12/28 00:46:37;;;;;;;1.50;1.40;;;;;;;;;;5045777;28;20100;-91
2023/12/28 00:49:04;;;;;;;2.85;1.60;;;;;;;;;;5035867;28;20106;-90
2023/12/28 00:51:32;;;;;;;1.40;1.27;;;;;;;;;;5041630;28;20057;-91
2023/12/28 00:53:59;;;;;;;3.75;1.58;;;;;;;;;;5057480;28;20057;-90
2023/12/28 00:56:26;;;;;;;1.70;1.60;;;;;;;;;;5064185;28;20054;-89
2023/12/28 00:58:54;;;;;;;4.13;2.08;;;;;;;;;;5049595;28;20613;-91
2023/12/28 01:01:21;;;;;;;1.65;1.55;;;;;;;;;;5042651;28;20053;-91
2023/12/28 01:03:48;;;;;;;1.88;1.77;;;;;;;;;;5056929;28;20100;-90
2023/12/28 01:06:16;;;;;;;3.33;1.77;;;;;;;;;;5057962;28;20057;-90
2023/12/28 01:08:43;;;;;;;6.00;2.92;;;;;;;;;;5044004;28;20059;-90
2023/12/28 01:11:12;;;;;;;1.92;1.83;;;;;;;;;;5044038;28;20130;-91
2023/12/28 01:13:39;;;;;;;1.63;1.48;;;;;;;;;;5032206;28;20115;-90
2023/12/28 01:16:08;;;;;;;2.80;1.80;;;;;;;;;;5056414;28;20075;-89
2023/12/28 01:18:36;;;;;;;4.03;1.55;;;;;;;;;;5039892;28;20054;-91
2023/12/28 01:21:03;;;;;;;1.90;1.50;;;;;;;;;;5056902;28;20057;-90
2023/12/28 01:23:31;;;;;;;1.55;1.45;;;;;;;;;;5059283;28;20100;-91
2023/12/28 01:25:58;;;;;;;2.25;1.60;;;;;;;;;;5043623;28;20045;-91
2023/12/28 01:28:25;;;;;;;1.98;1.52;;;;;;;;;;5041835;28;20068;-91
2023/12/28 01:30:52;;;;;;;3.08;1.80;;;;;;;;;;5056772;28;20046;-91
2023/12/28 01:33:19;;;;;;;2.08;1.85;;;;;;;;;;5057743;28;20073;-90
2023/12/28 01:35:47;;;;;;;2.28;1.50;;;;;;;;;;5043727;28;20045;-92
2023/12/28 01:38:14;;;;;;;2.78;1.58;;;;;;;;;;5043398;28;20106;-91
2023/12/28 01:40:45;;;;;;;2.78;1.77;;;;;;;;;;5040080;28;20188;-90
2023/12/28 01:43:13;;;;;;;1.92;1.73;;;;;;;;;;5056877;28;20144;-89
2023/12/28 01:45:40;;;;;;;1.70;1.60;;;;;;;;;;5043814;28;20057;-91
2023/12/28 01:48:07;;;;;;;4.53;1.92;;;;;;;;;;5043664;28;20053;-91
2023/12/28 01:50:35;;;;;;;2.13;1.30;;;;;;;;;;5040153;28;20057;-91
2023/12/28 01:53:03;;;;;;;2.65;1.60;;;;;;;;;;5056227;28;20103;-90
2023/12/28 01:55:31;;;;;;;3.20;1.45;;;;;;;;;;5059755;28;20054;-89
2023/12/28 01:57:58;;;;;;;2.83;1.90;;;;;;;;;;5047221;28;20049;-90
2023/12/28 02:00:26;;;;;;;2.35;1.65;;;;;;;;;;5045146;28;20132;-91
2023/12/28 02:02:54;;;;;;;2.70;1.70;;;;;;;;;;5054402;28;20482;-91
2023/12/28 02:05:21;;;;;;;1.55;1.45;;;;;;;;;;5025124;28;20057;-91
2023/12/28 02:07:49;;;;;;;1.65;1.55;;;;;;;;;;5059772;28;20053;-90
2023/12/28 02:10:16;;;;;;;2.10;1.70;;;;;;;;;;5061050;28;20053;-90
2023/12/28 02:12:43;;;;;;;2.70;1.95;;;;;;;;;;5050372;28;20045;-89
2023/12/28 02:15:11;;;;;;;4.20;1.95;;;;;;;;;;5060652;28;20481;-91
2023/12/28 02:17:51;;;;;;;1.45;1.35;;;;;;;;;;5035227;28;20429;-90
2023/12/28 02:20:20;;;;;;;2.05;1.80;;;;;;;;;;5060879;28;20088;-90
2023/12/28 02:22:47;;;;;;;3.28;1.85;;;;;;;;;;5046502;28;20052;-91
2023/12/28 02:25:14;;;;;;;1.90;1.73;;;;;;;;;;5046065;28;20563;-90
2023/12/28 02:27:49;;;;;;;3.97;1.70;;;;;;;;;;5051678;28;20054;-90
2023/12/28 02:30:17;;;;;;;2.25;1.75;;;;;;;;;;5043340;28;20049;-90
2023/12/28 02:32:57;;;;;;;1.90;1.80;;;;;;;;;;5042856;28;20049;-92
2023/12/28 02:35:25;;;;;;;2.20;2.00;;;;;;;;;;5061442;28;20057;-90
2023/12/28 02:37:54;;;;;;;2.10;1.60;;;;;;;;;;5046598;28;20107;-91
2023/12/28 02:40:21;;;;;;;2.10;1.85;;;;;;;;;;5045143;28;20056;-91
2023/12/28 02:42:49;;;;;;;2.28;1.67;;;;;;;;;;5059313;28;20045;-90
2023/12/28 02:45:18;;;;;;;2.03;1.60;;;;;;;;;;5060065;28;20061;-91
2023/12/28 02:47:45;;;;;;;3.30;1.65;;;;;;;;;;5046095;28;20545;-90
2023/12/28 02:50:12;;;;;;;1.95;1.85;;;;;;;;;;5046074;28;20053;-90
2023/12/28 02:52:40;;;;;;;2.35;2.00;;;;;;;;;;5059031;28;20045;-91
2023/12/28 02:55:07;;;;;;;2.10;1.90;;;;;;;;;;5051323;28;20490;-90
2023/12/28 02:57:37;;;;;;;2.80;1.60;;;;;;;;;;5029127;28;20088;-90
2023/12/28 03:00:05;;;;;;;2.08;1.70;;;;;;;;;;5045970;28;20049;-90
2023/12/28 03:02:33;;;;;;;1.98;1.77;;;;;;;;;;5043070;28;20144;-90
2023/12/28 03:05:00;;;;;;;3.85;1.80;;;;;;;;;;5058943;28;20053;-91
2023/12/28 03:07:27;;;;;;;2.25;2.00;;;;;;;;;;5043622;28;20065;-91
2023/12/28 03:09:54;;;;;;;2.55;1.75;;;;;;;;;;5039878;28;20436;-91
2023/12/28 03:12:22;;;;;;;3.85;1.80;;;;;;;;;;5042278;28;20084;-91
2023/12/28 03:14:49;;;;;;;2.30;1.85;;;;;;;;;;5041962;28;20049;-92
2023/12/28 03:17:17;;;;;;;2.33;2.00;;;;;;;;;;5042941;28;20045;-91
2023/12/28 03:19:44;;;;;;;2.72;1.60;;;;;;;;;;5045492;28;20115;-91
2023/12/28 03:22:11;;;;;;;2.85;1.70;;;;;;;;;;5045381;28;20053;-90
2023/12/28 03:24:38;;;;;;;2.78;2.00;;;;;;;;;;5058446;28;20076;-91
2023/12/28 03:27:06;;;;;;;3.55;1.73;;;;;;;;;;5060689;28;20133;-91
2023/12/28 03:29:33;;;;;;;2.28;2.00;;;;;;;;;;5057349;28;20119;-90
2023/12/28 03:32:01;;;;;;;3.03;1.90;;;;;;;;;;5051813;28;20116;-90
2023/12/28 03:34:29;;;;;;;2.05;1.90;;;;;;;;;;5034728;28;20053;-90
2023/12/28 03:36:57;;;;;;;2.45;2.25;;;;;;;;;;5045404;28;20456;-90
2023/12/28 03:39:24;;;;;;;3.72;1.80;;;;;;;;;;5043591;28;20057;-91
2023/12/28 03:41:55;;;;;;;3.13;1.90;;;;;;;;;;5058357;28;20084;-90
2023/12/28 03:44:22;;;;;;;6.03;1.98;;;;;;;;;;5059587;28;20058;-90
2023/12/28 03:46:50;;;;;;;3.08;1.85;;;;;;;;;;5031739;28;20053;-90
2023/12/28 03:49:18;;;;;;;2.30;2.10;;;;;;;;;;5059142;28;20045;-91
2023/12/28 03:51:45;;;;;;;2.13;2.03;;;;;;;;;;5044807;28;20258;-90
2023/12/28 03:54:13;;;;;;;3.53;2.00;;;;;;;;;;5044189;28;20049;-91
2023/12/28 03:56:40;;;;;;;2.05;1.90;;;;;;;;;;5057946;28;20049;-91
2023/12/28 03:59:07;;;;;;;3.72;1.80;;;;;;;;;;5065886;28;20049;-90
2023/12/28 04:01:35;;;;;;;2.97;1.90;;;;;;;;;;5041691;28;20140;-91
2023/12/28 04:04:02;;;;;;;1.77;1.63;;;;;;;;;;5057593;28;20046;-89
2023/12/28 04:06:30;;;;;;;1.90;1.80;;;;;;;;;;5060313;28;20045;-90
2023/12/28 04:08:57;;;;;;;3.63;1.85;;;;;;;;;;5044700;28;20053;-89
2023/12/28 04:11:24;;;;;;;2.25;2.03;;;;;;;;;;5026735;28;20577;-90
2023/12/28 04:13:52;;;;;;;3.90;1.80;;;;;;;;;;5057815;28;20053;-90
2023/12/28 04:16:19;;;;;;;2.78;1.80;;;;;;;;;;5049647;28;20053;-90
2023/12/28 04:18:46;;;;;;;2.22;2.00;;;;;;;;;;5057126;28;20119;-91
2023/12/28 04:21:14;;;;;;;2.45;2.17;;;;;;;;;;5057956;28;20091;-91
2023/12/28 04:23:42;;;;;;;2.75;2.20;;;;;;;;;;5044547;28;20083;-91
2023/12/28 04:26:09;;;;;;;1.63;1.52;;;;;;;;;;5044787;28;20052;-91
2023/12/28 04:28:36;;;;;;;2.38;1.83;;;;;;;;;;5033277;28;20130;-89
2023/12/28 04:31:07;;;;;;;3.45;1.70;;;;;;;;;;5041063;28;20054;-90
2023/12/28 04:33:34;;;;;;;2.63;2.10;;;;;;;;;;5060320;28;20072;-91
2023/12/28 04:36:06;;;;;;;1.55;1.45;;;;;;;;;;5044295;28;20071;-90
2023/12/28 04:38:33;;;;;;;4.97;2.40;;;;;;;;;;5041418;28;20059;-89
2023/12/28 04:41:01;;;;;;;3.20;2.17;;;;;;;;;;5057843;28;20069;-91
2023/12/28 04:43:29;;;;;;;2.40;1.77;;;;;;;;;;5068347;28;20046;-90
2023/12/28 04:45:56;;;;;;;2.47;2.05;;;;;;;;;;5041023;28;20061;-90
2023/12/28 04:48:25;;;;;;;4.18;2.28;;;;;;;;;;5040962;28;20064;-91
2023/12/28 04:50:53;;;;;;;3.75;2.03;;;;;;;;;;5041131;28;20053;-91
2023/12/28 04:53:21;;;;;;;2.35;2.15;;;;;;;;;;5058316;28;20552;-91
2023/12/28 04:55:48;;;;;;;2.78;2.08;;;;;;;;;;5044277;28;20049;-89
2023/12/28 04:58:16;;;;;;;2.58;2.10;;;;;;;;;;5043536;28;20088;-89
2023/12/28 05:00:43;;;;;;;2.92;2.05;;;;;;;;;;5056911;28;20080;-91
2023/12/28 05:03:10;;;;;;;2.55;2.03;;;;;;;;;;5048800;28;20042;-90
2023/12/28 05:05:37;;;;;;;2.33;2.13;;;;;;;;;;5040629;28;20045;-89
2023/12/28 05:08:05;;;;;;;3.45;2.25;;;;;;;;;;5057237;28;20046;-90
2023/12/28 05:10:32;;;;;;;2.90;2.10;;;;;;;;;;5059937;28;20061;-91
2023/12/28 05:12:59;;;;;;;2.60;1.88;;;;;;;;;;5030351;28;20053;-89
2023/12/28 05:15:28;;;;;;;4.22;2.20;;;;;;;;;;5041600;28;20128;-90
2023/12/28 05:17:56;;;;;;;2.00;1.90;;;;;;;;;;5043557;28;20452;-90
2023/12/28 05:20:24;;;;;;;2.40;2.00;;;;;;;;;;5042020;28;20059;-89
2023/12/28 05:22:51;;;;;;;2.40;1.83;;;;;;;;;;5056791;28;20045;-91
2023/12/28 05:25:19;;;;;;;3.25;2.08;;;;;;;;;;5041367;28;20053;-91
2023/12/28 05:27:46;;;;;;;2.22;1.92;;;;;;;;;;5043566;28;20065;-90
2023/12/28 05:30:13;;;;;;;2.10;1.90;;;;;;;;;;5043489;28;20103;-91
2023/12/28 05:32:41;;;;;;;1.98;1.85;;;;;;;;;;5060830;28;20462;-91
2023/12/28 05:35:08;;;;;;;3.42;1.95;;;;;;;;;;5060359;28;20474;-90
2023/12/28 05:37:35;;;;;;;3.95;1.60;;;;;;;;;;5063796;28;20459;-89
2023/12/28 05:40:03;;;;;;;1.80;1.70;;;;;;;;;;5047537;28;20438;-91
2023/12/28 05:42:30;;;;;;;3.65;1.92;;;;;;;;;;5028381;28;20049;-91
2023/12/28 05:44:57;;;;;;;2.22;1.80;;;;;;;;;;5060580;28;20053;-91
2023/12/28 05:47:24;;;;;;;2.28;2.08;;;;;;;;;;5062441;28;20076;-91
2023/12/28 05:49:52;;;;;;;2.83;1.83;;;;;;;;;;5047522;28;20079;-91
2023/12/28 05:52:19;;;;;;;2.35;1.90;;;;;;;;;;5046025;28;20056;-91
2023/12/28 05:54:50;;;;;;;2.30;2.05;;;;;;;;;;5060185;28;20100;-91
2023/12/28 05:57:17;;;;;;;2.50;2.13;;;;;;;;;;5062283;28;20405;-90
2023/12/28 05:59:44;;;;;;;2.65;1.80;;;;;;;;;;5049647;28;20141;-91
2023/12/28 06:02:12;;;;;;;1.90;1.80;;;;;;;;;;5040959;28;20091;-90
2023/12/28 06:04:39;;;;;;;3.13;1.80;;;;;;;;;;5039917;28;20475;-90
2023/12/28 06:07:06;;;;;;;2.80;1.85;;;;;;;;;;5038785;28;20520;-91
2023/12/28 06:09:33;;;;;;;2.47;1.88;;;;;;;;;;5043896;28;20478;-91
2023/12/28 06:12:01;;;;;;;3.88;2.00;;;;;;;;;;5060101;28;20065;-90
2023/12/28 06:14:29;;;;;;;2.05;1.77;;;;;;;;;;5059835;28;20093;-90
2023/12/28 06:16:56;;;;;;;4.38;2.03;;;;;;;;;;5060231;28;20053;-89
2023/12/28 06:19:24;;;;;;;2.38;1.80;;;;;;;;;;5061387;28;20064;-89
2023/12/28 06:21:51;;;;;;;1.98;1.60;;;;;;;;;;5046865;28;20083;-91
2023/12/28 06:24:18;;;;;;;1.90;1.80;;;;;;;;;;5045743;28;20048;-90
2023/12/28 06:26:46;;;;;;;1.83;1.73;;;;;;;;;;5059885;28;20050;-91
2023/12/28 06:29:13;;;;;;;1.88;1.70;;;;;;;;;;5060294;28;20144;-90
2023/12/28 06:31:40;;;;;;;2.40;1.85;;;;;;;;;;5051318;28;20049;-91
2023/12/28 06:34:08;;;;;;;2.63;1.90;;;;;;;;;;5059380;28;20069;-90
2023/12/28 06:36:35;;;;;;;1.70;1.60;;;;;;;;;;5062968;28;20190;-91
2023/12/28 06:39:03;;;;;;;2.08;1.88;;;;;;;;;;5046841;28;20060;-89
2023/12/28 06:41:30;;;;;;;2.35;1.60;;;;;;;;;;5043756;28;20116;-90
2023/12/28 06:43:57;;;;;;;3.40;1.70;;;;;;;;;;5059605;28;20103;-92
2023/12/28 06:46:25;;;;;;;1.95;1.50;;;;;;;;;;5061780;28;20054;-90
2023/12/28 06:48:52;;;;;;;3.72;2.05;;;;;;;;;;5044990;28;20057;-90
2023/12/28 06:51:20;;;;;;;4.55;1.90;;;;;;;;;;5045314;28;20060;-93
2023/12/28 06:53:48;;;;;;;1.85;1.67;;;;;;;;;;5059348;28;20115;-93
2023/12/28 06:56:16;;;;;;;1.70;1.60;;;;;;;;;;5060614;28;20060;-90
2023/12/28 06:58:44;;;;;;;1.77;1.67;;;;;;;;;;5046555;28;20048;-91
2023/12/28 07:01:11;;;;;;;1.80;1.70;;;;;;;;;;5046782;28;20178;-90
2023/12/28 07:03:40;;;;;;;2.78;1.50;;;;;;;;;;5059540;28;20046;-90
2023/12/28 07:06:08;;;;;;;2.95;1.92;;;;;;;;;;5059458;28;20073;-89
2023/12/28 07:08:38;;;;;;;2.00;1.70;;;;;;;;;;5062796;28;20131;-90
2023/12/28 07:11:06;;;;;;;2.33;1.75;;;;;;;;;;5047024;28;20091;-88
2023/12/28 07:13:33;;;;;;;2.78;1.80;;;;;;;;;;5036661;28;20123;-88
2023/12/28 07:16:01;;;;;;;3.50;1.52;;;;;;;;;;5059038;28;20050;-91
2023/12/28 07:18:29;;;;;;;1.75;1.65;;;;;;;;;;5044848;28;20058;-90
2023/12/28 07:20:56;;;;;;;1.67;1.58;;;;;;;;;;5045872;28;20057;-90
2023/12/28 07:23:24;;;;;;;3.38;1.90;;;;;;;;;;5043754;28;20064;-89
2023/12/28 07:25:51;;;;;;;1.98;1.75;;;;;;;;;;5056180;28;20084;-89
2023/12/28 07:28:18;;;;;;;1.90;1.80;;;;;;;;;;5044994;28;20103;-90
2023/12/28 07:30:46;;;;;;;2.35;2.17;;;;;;;;;;5042348;28;20451;-89
2023/12/28 07:33:13;;;;;;;1.98;1.85;;;;;;;;;;5034008;28;20045;-89
2023/12/28 07:35:42;;;;;;;2.67;1.80;;;;;;;;;;5045258;28;20494;-93
2023/12/28 07:38:12;;;;;;;1.80;1.70;;;;;;;;;;5029670;28;20049;-90
2023/12/28 07:40:39;;;;;;;2.70;1.92;;;;;;;;;;5058769;28;20056;-89
2023/12/28 07:43:06;;;;;;;7.38;2.35;;;;;;;;;;5058578;28;20107;-89
2023/12/28 07:45:34;;;;;;;2.20;1.88;;;;;;;;;;5061570;28;20071;-90
2023/12/28 07:48:02;;;;;;;2.55;2.03;;;;;;;;;;5045649;28;20057;-89
2023/12/28 07:50:29;;;;;;;4.55;2.00;;;;;;;;;;5046167;28;20065;-88
2023/12/28 07:52:56;;;;;;;2.00;1.77;;;;;;;;;;5044823;28;20701;-91
2023/12/28 07:55:25;;;;;;;2.28;1.85;;;;;;;;;;5043242;28;20107;-88
2023/12/28 07:57:52;;;;;;;2.22;1.88;;;;;;;;;;5058436;28;20125;-90
2023/12/28 08:00:20;;;;;;;2.13;1.90;;;;;;;;;;5059410;28;20057;-89
2023/12/28 08:02:47;;;;;;;1.80;1.70;;;;;;;;;;5040401;28;20050;-89
2023/12/28 08:05:14;;;;;;;2.45;1.92;;;;;;;;;;5058800;28;20514;-88
2023/12/28 08:07:42;;;;;;;1.85;1.75;;;;;;;;;;5045847;28;20110;-89
2023/12/28 08:10:09;;;;;;;2.78;2.55;;;;;;;;;;5037474;28;20107;-90
2023/12/28 08:12:37;;;;;;;3.47;2.15;;;;;;;;;;5041502;28;20053;-89
2023/12/28 08:15:05;;;;;;;1.92;1.83;;;;;;;;;;5033826;28;20046;-89
2023/12/28 08:17:32;;;;;;;3.53;2.05;;;;;;;;;;5037938;28;20100;-90
2023/12/28 08:19:59;;;;;;;2.10;2.00;;;;;;;;;;5034750;28;20044;-89
2023/12/28 08:22:28;;;;;;;3.40;2.15;;;;;;;;;;5043133;28;20135;-92
2023/12/28 08:24:55;;;;;;;2.13;1.88;;;;;;;;;;5057630;28;20072;-91
2023/12/28 08:27:22;;;;;;;2.42;1.98;;;;;;;;;;5059101;28;20087;-90
2023/12/28 08:29:50;;;;;;;4.85;3.10;;;;;;;;;;5062034;28;20045;-92
2023/12/28 08:32:18;;;;;;;2.13;2.03;;;;;;;;;;5046780;28;20063;-90
2023/12/28 08:34:47;;;;;;;1.92;1.83;;;;;;;;;;5057983;28;20053;-90
2023/12/28 08:37:15;;;;;;;1.70;1.60;;;;;;;;;;5057753;28;20081;-90
2023/12/28 08:39:42;;;;;;;3.67;2.60;;;;;;;;;;5029748;28;20053;-92
2023/12/28 08:42:09;;;;;;;2.08;1.88;;;;;;;;;;5044753;28;20060;-90
2023/12/28 08:44:37;;;;;;;3.13;1.80;;;;;;;;;;5044550;28;20386;-90
2023/12/28 08:47:04;;;;;;;2.53;2.00;;;;;;;;;;5044355;28;20057;-89
2023/12/28 08:49:33;;;;;;;2.08;1.60;;;;;;;;;;5041739;28;20057;-92
2023/12/28 08:52:00;;;;;;;1.75;1.50;;;;;;;;;;5058172;28;20123;-90
2023/12/28 08:54:27;;;;;;;1.80;1.50;;;;;;;;;;5057637;28;20055;-92
2023/12/28 08:56:55;;;;;;;1.33;1.25;;;;;;;;;;5041154;28;20084;-90
2023/12/28 08:59:25;;;;;;;3.50;1.85;;;;;;;;;;5043266;28;20448;-91
2023/12/28 09:01:56;;;;;;;1.40;1.30;;;;;;;;;;5044496;28;20060;-91
2023/12/28 09:04:23;;;;;;;1.92;1.67;;;;;;;;;;5043185;28;20053;-92
2023/12/28 09:06:50;;;;;;;2.85;1.60;;;;;;;;;;5039974;28;20060;-94
2023/12/28 09:09:18;;;;;;;1.52;1.42;;;;;;;;;;5035529;28;20053;-91
2023/12/28 09:11:45;;;;;;;2.03;1.35;;;;;;;;;;5048460;28;20060;-90
2023/12/28 09:14:12;;;;;;;3.10;1.60;;;;;;;;;;5048095;28;20045;-93
2023/12/28 09:16:41;;;;;;;4.50;1.83;;;;;;;;;;5062130;28;20103;-89
2023/12/28 09:19:09;;;;;;;1.30;1.20;;;;;;;;;;5061245;28;20049;-90
2023/12/28 09:21:36;;;;;;;1.52;1.42;;;;;;;;;;5061126;28;20050;-90
2023/12/28 09:24:04;;;;;;;1.65;1.55;;;;;;;;;;5061869;28;20107;-88
2023/12/28 09:26:32;;;;;;;2.35;1.40;;;;;;;;;;5053423;28;20045;-89
2023/12/28 09:29:00;;;;;;;1.77;1.38;;;;;;;;;;5062119;28;20107;-89
2023/12/28 09:31:27;;;;;;;1.25;1.15;;;;;;;;;;5064439;28;20049;-92
2023/12/28 09:33:54;;;;;;;1.35;1.25;;;;;;;;;;5048287;28;20099;-91
2023/12/28 09:36:22;;;;;;;2.78;1.10;;;;;;;;;;5046822;28;20059;-92
2023/12/28 09:38:51;;;;;;;1.15;1.10;;;;;;;;;;5061600;28;20468;-91
2023/12/28 09:41:21;;;;;;;1.35;1.20;;;;;;;;;;5062078;28;20099;-91
2023/12/28 09:43:54;;;;;;;0.90;0.90;;;;;;;;;;5051814;28;20064;-90
2023/12/28 09:46:26;;;;;;;3.45;1.30;;;;;;;;;;5032889;28;20136;-92
2023/12/28 09:48:56;;;;;;;2.53;1.30;;;;;;;;;;5048648;28;20059;-90
2023/12/28 09:51:25;;;;;;;1.00;1.00;;;;;;;;;;5046563;28;20071;-91
2023/12/28 09:53:52;;;;;;;1.60;1.23;;;;;;;;;;5060939;28;20063;-89
2023/12/28 09:56:20;;;;;;;1.30;1.20;;;;;;;;;;5062067;28;20049;-91
2023/12/28 09:58:49;;;;;;;1.15;1.05;;;;;;;;;;5047518;28;20489;-92
2023/12/28 10:01:16;;;;;;;1.98;1.40;;;;;;;;;;5046906;28;20515;-90
2023/12/28 10:03:44;;;;;;;2.42;1.33;;;;;;;;;;5060521;28;20069;-90
2023/12/28 10:06:15;;;;;;;1.00;1.00;;;;;;;;;;5044271;28;20045;-89
2023/12/28 10:08:49;;;;;;;1.25;1.05;;;;;;;;;;5047761;28;20052;-89
2023/12/28 10:11:16;;;;;;;1.67;1.20;;;;;;;;;;5046685;28;20479;-90
2023/12/28 10:13:44;;;;;;;1.30;1.20;;;;;;;;;;5043599;28;20049;-90
2023/12/28 10:16:12;;;;;;;1.48;1.13;;;;;;;;;;5043102;28;20057;-93
2023/12/28 10:18:42;;;;;;;1.33;1.27;;;;;;;;;;5040186;28;20064;-91
2023/12/28 10:21:10;;;;;;;1.15;0.93;;;;;;;;;;5047583;28;20094;-89
2023/12/28 10:23:37;;;;;;;1.92;1.67;;;;;;;;;;5046837;28;20103;-90
2023/12/28 10:26:05;;;;;;;2.22;1.00;;;;;;;;;;5047099;28;20084;-90
2023/12/28 10:28:33;;;;;;;1.10;1.00;;;;;;;;;;5044256;28;20049;-91
2023/12/28 10:31:01;;;;;;;1.25;1.17;;;;;;;;;;5060282;28;20057;-90
2023/12/28 10:33:28;;;;;;;1.00;0.90;;;;;;;;;;5051747;28;20054;-90
2023/12/28 10:35:59;;;;;;;0.90;0.90;;;;;;;;;;5060305;28;20056;-92
2023/12/28 10:38:29;;;;;;;2.17;1.10;;;;;;;;;;5043159;28;20045;-90
2023/12/28 10:40:56;;;;;;;1.17;1.08;;;;;;;;;;5043601;28;20061;-92
2023/12/28 10:43:24;;;;;;;2.15;1.00;;;;;;;;;;5044436;28;20560;-89
2023/12/28 10:45:54;;;;;;;1.75;1.17;;;;;;;;;;5047120;28;20493;-91
2023/12/28 10:48:27;;;;;;;1.52;1.10;;;;;;;;;;5045225;28;20127;-91
2023/12/28 10:50:56;;;;;;;2.95;1.20;;;;;;;;;;5059707;28;20049;-89
2023/12/28 10:53:40;;;;;;;1.23;1.13;;;;;;;;;;5061428;28;20053;-91
2023/12/28 10:56:11;;;;;;;1.20;1.10;;;;;;;;;;5046398;28;20049;-90
2023/12/28 10:58:48;;;;;;;1.88;1.23;;;;;;;;;;5047865;28;20144;-92
2023/12/28 11:01:26;;;;;;;1.20;1.10;;;;;;;;;;5065395;28;20111;-94
2023/12/28 11:04:04;;;;;;;2.03;1.00;;;;;;;;;;5046832;28;20057;-91
2023/12/28 11:06:31;;;;;;;1.40;0.90;;;;;;;;;;5043897;28;20053;-91
2023/12/28 11:09:00;;;;;;;0.82;0.80;;;;;;;;;;5059645;28;20080;-89
2023/12/28 11:11:27;;;;;;;1.20;0.95;;;;;;;;;;5059610;28;20073;-91
2023/12/28 11:13:56;;;;;;;1.30;1.20;;;;;;;;;;5047956;28;20380;-92
2023/12/28 11:16:23;;;;;;;0.85;0.85;;;;;;;;;;5029493;28;20502;-89
2023/12/28 11:18:51;;;;;;;3.25;1.20;;;;;;;;;;5045954;28;20053;-90
2023/12/28 11:21:19;;;;;;;1.50;1.40;;;;;;;;;;5044777;28;20057;-89
2023/12/28 11:23:48;;;;;;;3.10;1.65;;;;;;;;;;5058536;28;20049;-90
2023/12/28 11:26:19;;;;;;;1.88;1.25;;;;;;;;;;5058985;28;20460;-91
2023/12/28 11:28:46;;;;;;;1.75;1.00;;;;;;;;;;5044969;28;20053;-90
2023/12/28 11:31:18;;;;;;;2.33;1.20;;;;;;;;;;5046612;28;20071;-89
2023/12/28 11:33:46;;;;;;;1.60;1.27;;;;;;;;;;5060279;28;20072;-91
2023/12/28 11:36:26;;;;;;;1.30;1.20;;;;;;;;;;5059250;28;20055;-93
2023/12/28 11:38:54;;;;;;;1.20;1.10;;;;;;;;;;5045215;28;20052;-89
2023/12/28 11:41:21;;;;;;;1.50;1.40;;;;;;;;;;5043967;28;20110;-89
2023/12/28 11:43:52;;;;;;;1.10;1.10;;;;;;;;;;5058413;28;20095;-91
2023/12/28 11:46:20;;;;;;;1.45;1.02;;;;;;;;;;5059525;28;20049;-89
2023/12/28 11:48:48;;;;;;;1.27;1.17;;;;;;;;;;5045946;28;20049;-89
2023/12/28 11:51:17;;;;;;;0.73;0.73;;;;;;;;;;5045685;28;20052;-92
2023/12/28 11:53:46;;;;;;;1.92;1.58;;;;;;;;;;5057999;28;20445;-90
2023/12/28 11:56:15;;;;;;;3.05;1.83;;;;;;;;;;5058727;28;20059;-90
2023/12/28 11:58:45;;;;;;;3.70;1.73;;;;;;;;;;5046019;28;20551;-90
2023/12/28 12:01:13;;;;;;;2.90;1.80;;;;;;;;;;5046013;28;20197;-90
2023/12/28 12:03:40;;;;;;;1.38;1.27;;;;;;;;;;5062351;28;20056;-89
2023/12/28 12:06:08;;;;;;;1.30;1.10;;;;;;;;;;5045303;28;20123;-91
2023/12/28 12:08:35;;;;;;;2.47;1.92;;;;;;;;;;5046243;28;20049;-90
2023/12/28 12:11:05;;;;;;;2.63;1.45;;;;;;;;;;5044951;28;20444;-90
2023/12/28 12:13:32;;;;;;;2.38;1.00;;;;;;;;;;5049084;28;20061;-88
2023/12/28 12:16:05;;;;;;;1.10;1.00;;;;;;;;;;5059025;28;20468;-90
2023/12/28 12:18:33;;;;;;;1.27;1.10;;;;;;;;;;5060190;28;20055;-90
2023/12/28 12:21:05;;;;;;;3.53;1.33;;;;;;;;;;5044995;28;20555;-90
2023/12/28 12:23:33;;;;;;;1.73;1.15;;;;;;;;;;5041676;28;20513;-90
2023/12/28 12:26:00;;;;;;;1.48;1.02;;;;;;;;;;5058099;28;20087;-89
2023/12/28 12:28:27;;;;;;;1.67;1.20;;;;;;;;;;5059992;28;20053;-90
2023/12/28 12:31:00;;;;;;;2.35;0.80;;;;;;;;;;5032875;28;20483;-91
2023/12/28 12:33:28;;;;;;;1.17;0.90;;;;;;;;;;5042281;28;20128;-92
2023/12/28 12:35:56;;;;;;;3.45;1.02;;;;;;;;;;5044773;28;20049;-91
2023/12/28 12:38:23;;;;;;;3.08;0.90;;;;;;;;;;5042983;28;20044;-90
2023/12/28 12:40:51;;;;;;;0.90;0.90;;;;;;;;;;5057579;28;20510;-91
2023/12/28 12:43:19;;;;;;;3.55;0.90;;;;;;;;;;5057964;28;20049;-91
2023/12/28 12:45:46;;;;;;;1.65;0.88;;;;;;;;;;5044400;28;20057;-91
2023/12/28 12:48:15;;;;;;;1.73;1.10;;;;;;;;;;5043928;28;20562;-91
2023/12/28 12:50:43;;;;;;;1.52;1.27;;;;;;;;;;5057715;28;20132;-90
2023/12/28 12:53:12;;;;;;;3.08;1.10;;;;;;;;;;5057141;28;20057;-93
2023/12/28 12:55:39;;;;;;;4.38;1.05;;;;;;;;;;5060893;28;20049;-91
2023/12/28 12:58:06;;;;;;;1.67;0.90;;;;;;;;;;5046061;28;20280;-90
2023/12/28 13:00:35;;;;;;;0.98;0.93;;;;;;;;;;5041247;28;20052;-90
2023/12/28 13:03:03;;;;;;;1.02;0.82;;;;;;;;;;5057513;28;20057;-95
2023/12/28 13:05:30;;;;;;;0.98;0.55;;;;;;;;;;5066035;28;20068;-90
2023/12/28 13:07:57;;;;;;;0.90;0.73;;;;;;;;;;5057310;28;20041;-90
2023/12/28 13:10:25;;;;;;;0.93;0.90;;;;;;;;;;5058878;28;20056;-90
2023/12/28 13:12:52;;;;;;;1.08;0.77;;;;;;;;;;5043997;28;20064;-90
2023/12/28 13:15:20;;;;;;;1.27;0.73;;;;;;;;;;5043128;28;20497;-91
2023/12/28 13:17:48;;;;;;;3.15;0.80;;;;;;;;;;5057187;28;20056;-90
2023/12/28 13:20:15;;;;;;;2.08;0.70;;;;;;;;;;5057755;28;20046;-90
2023/12/28 13:22:42;;;;;;;0.77;0.77;;;;;;;;;;5040742;28;20049;-94
2023/12/28 13:25:10;;;;;;;3.13;1.13;;;;;;;;;;5040403;28;20050;-89
2023/12/28 13:27:38;;;;;;;1.48;0.82;;;;;;;;;;5040889;28;20041;-90
2023/12/28 13:30:06;;;;;;;0.85;0.80;;;;;;;;;;5056094;28;20129;-90
2023/12/28 13:32:33;;;;;;;1.48;0.90;;;;;;;;;;5061022;28;20490;-90
2023/12/28 13:35:00;;;;;;;3.42;0.98;;;;;;;;;;5043846;28;20053;-90
2023/12/28 13:37:30;;;;;;;2.25;1.00;;;;;;;;;;5040973;28;20484;-90
2023/12/28 13:39:57;;;;;;;4.10;1.05;;;;;;;;;;5056668;28;20061;-89
2023/12/28 13:42:24;;;;;;;1.23;0.90;;;;;;;;;;5058478;28;20059;-90
2023/12/28 13:44:51;;;;;;;5.75;2.28;;;;;;;;;;5043914;28;20064;-90
2023/12/28 13:47:18;;;;;;;3.40;1.05;;;;;;;;;;5042817;28;20091;-89
2023/12/28 13:49:47;;;;;;;5.05;2.92;;;;;;;;;;5056685;28;20045;-91
2023/12/28 13:52:14;;;;;;;5.97;1.05;;;;;;;;;;5058855;28;20056;-89
2023/12/28 13:54:42;;;;;;;1.40;0.80;;;;;;;;;;5047272;28;20421;-89
2023/12/28 13:57:09;;;;;;;1.02;0.70;;;;;;;;;;5047415;28;20049;-89
2023/12/28 13:59:36;;;;;;;3.03;0.88;;;;;;;;;;5040618;28;20132;-91
2023/12/28 14:02:04;;;;;;;1.95;0.90;;;;;;;;;;5031042;28;20053;-91
2023/12/28 14:04:31;;;;;;;3.70;0.90;;;;;;;;;;5046062;28;20076;-89
2023/12/28 14:06:58;;;;;;;1.38;1.27;;;;;;;;;;5047220;28;20064;-90
2023/12/28 14:09:26;;;;;;;1.40;1.08;;;;;;;;;;5045242;28;20067;-91
2023/12/28 14:11:53;;;;;;;1.33;0.82;;;;;;;;;;5060577;28;20486;-90
2023/12/28 14:14:20;;;;;;;1.80;1.10;;;;;;;;;;5051963;28;20042;-90
2023/12/28 14:16:47;;;;;;;3.22;1.02;;;;;;;;;;5060127;28;20123;-89
2023/12/28 14:19:15;;;;;;;0.93;0.70;;;;;;;;;;5059463;28;20053;-89
2023/12/28 14:21:42;;;;;;;3.95;0.90;;;;;;;;;;5043048;28;20410;-89
2023/12/28 14:24:10;;;;;;;1.30;1.20;;;;;;;;;;5061241;28;20103;-90
2023/12/28 14:26:44;;;;;;;1.90;0.90;;;;;;;;;;5052989;28;20049;-89
2023/12/28 14:29:11;;;;;;;;;;;;;;;;;;5061648;28;20057;-89
2023/12/28 14:31:38;;;;;;;1.65;1.08;;;;;;;;;;5043202;28;19921;-90
2023/12/28 14:34:06;;;;;;;2.05;1.00;;;;;;;;;;5059753;28;20049;-89
2023/12/28 14:36:38;;;;;;;1.05;0.98;;;;;;;;;;5059994;28;20049;-90
2023/12/28 14:39:06;;;;;;;0.65;0.65;;;;;;;;;;5043925;28;20049;-91
2023/12/28 14:41:36;;;;;;;1.98;0.88;;;;;;;;;;5023200;28;20060;-88
2023/12/28 14:44:08;;;;;;;2.55;0.90;;;;;;;;;;5064021;28;20029;-89
2023/12/28 14:46:36;;;;;;;1.42;0.80;;;;;;;;;;5058373;28;20057;-90
2023/12/28 14:49:03;;;;;;;0.70;0.70;;;;;;;;;;5059772;28;20077;-91